sensor_id;sensor_type;location;lat;lon;timestamp;P1;durP1;ratioP1;P2;durP2;ratioP2
58992;SDS011;44782;0.000;0.000;2023-11-19T00:02:05;2.03;;;1.50;;
58992;SDS011;44782;0.000;0.000;2023-11-19T00:04:23;3.70;;;1.60;;
58992;SDS011;44782;0.000;0.000;2023-11-19T00:06:38;2.20;;;1.50;;
58992;SDS011;44782;0.000;0.000;2023-11-19T00:08:54;1.60;;;1.50;;
58992;SDS011;44782;0.000;0.000;2023-11-19T00:11:10;1.40;;;1.30;;
58992;SDS011;44782;0.000;0.000;2023-11-19T00:13:26;2.47;;;1.30;;
58992;SDS011;44782;0.000;0.000;2023-11-19T00:15:41;2.07;;;1.50;;
58992;SDS011;44782;0.000;0.000;2023-11-19T00:17:57;1.50;;;1.40;;
58992;SDS011;44782;0.000;0.000;2023-11-19T00:20:13;1.40;;;1.30;;
58992;SDS011;44782;0.000;0.000;2023-11-19T00:22:30;1.70;;;1.60;;
58992;SDS011;44782;0.000;0.000;2023-11-19T00:24:46;1.97;;;1.53;;
58992;SDS011;44782;0.000;0.000;2023-11-19T00:27:02;1.40;;;1.30;;
58992;SDS011;44782;0.000;0.000;2023-11-19T00:29:17;2.10;;;1.50;;
58992;SDS011;44782;0.000;0.000;2023-11-19T00:31:35;1.27;;;1.17;;
58992;SDS011;44782;0.000;0.000;2023-11-19T00:33:50;1.50;;;1.40;;
58992;SDS011;44782;0.000;0.000;2023-11-19T00:36:06;2.97;;;1.77;;
58992;SDS011;44782;0.000;0.000;2023-11-19T00:38:22;2.93;;;1.40;;
58992;SDS011;44782;0.000;0.000;2023-11-19T00:40:38;2.03;;;1.40;;
58992;SDS011;44782;0.000;0.000;2023-11-19T00:42:53;1.50;;;1.40;;
58992;SDS011;44782;0.000;0.000;2023-11-19T00:45:09;2.30;;;1.30;;
58992;SDS011;44782;0.000;0.000;2023-11-19T00:47:25;2.10;;;1.20;;
58992;SDS011;44782;0.000;0.000;2023-11-19T00:49:41;1.47;;;1.17;;
58992;SDS011;44782;0.000;0.000;2023-11-19T00:51:58;1.40;;;1.30;;
58992;SDS011;44782;0.000;0.000;2023-11-19T00:54:14;1.53;;;1.20;;
58992;SDS011;44782;0.000;0.000;2023-11-19T00:56:29;2.17;;;1.37;;
58992;SDS011;44782;0.000;0.000;2023-11-19T00:58:45;2.03;;;1.20;;
58992;SDS011;44782;0.000;0.000;2023-11-19T01:01:00;4.43;;;1.37;;
58992;SDS011;44782;0.000;0.000;2023-11-19T01:03:16;1.20;;;1.13;;
58992;SDS011;44782;0.000;0.000;2023-11-19T01:05:34;1.23;;;1.13;;
58992;SDS011;44782;0.000;0.000;2023-11-19T01:07:50;1.10;;;1.10;;
58992;SDS011;44782;0.000;0.000;2023-11-19T01:10:07;1.37;;;1.27;;
58992;SDS011;44782;0.000;0.000;2023-11-19T01:12:23;1.60;;;1.50;;
58992;SDS011;44782;0.000;0.000;2023-11-19T01:14:39;1.73;;;1.23;;
58992;SDS011;44782;0.000;0.000;2023-11-19T01:16:55;1.47;;;1.10;;
58992;SDS011;44782;0.000;0.000;2023-11-19T01:19:10;1.20;;;1.10;;
58992;SDS011;44782;0.000;0.000;2023-11-19T01:21:26;1.20;;;1.17;;
58992;SDS011;44782;0.000;0.000;2023-11-19T01:23:42;1.40;;;1.30;;
58992;SDS011;44782;0.000;0.000;2023-11-19T01:26:00;1.20;;;1.07;;
58992;SDS011;44782;0.000;0.000;2023-11-19T01:28:16;1.47;;;1.30;;
58992;SDS011;44782;0.000;0.000;2023-11-19T01:30:32;1.40;;;1.30;;
58992;SDS011;44782;0.000;0.000;2023-11-19T01:32:47;1.40;;;1.30;;
58992;SDS011;44782;0.000;0.000;2023-11-19T01:35:03;1.30;;;1.20;;
58992;SDS011;44782;0.000;0.000;2023-11-19T01:37:19;2.90;;;1.23;;
58992;SDS011;44782;0.000;0.000;2023-11-19T01:39:35;1.60;;;1.20;;
58992;SDS011;44782;0.000;0.000;2023-11-19T01:41:50;1.00;;;0.90;;
58992;SDS011;44782;0.000;0.000;2023-11-19T01:44:06;1.07;;;1.00;;
58992;SDS011;44782;0.000;0.000;2023-11-19T01:46:22;2.23;;;1.10;;
58992;SDS011;44782;0.000;0.000;2023-11-19T01:48:42;1.10;;;1.00;;
58992;SDS011;44782;0.000;0.000;2023-11-19T01:50:59;1.53;;;1.07;;
58992;SDS011;44782;0.000;0.000;2023-11-19T01:53:17;1.27;;;1.17;;
58992;SDS011;44782;0.000;0.000;2023-11-19T01:55:33;1.03;;;1.03;;
58992;SDS011;44782;0.000;0.000;2023-11-19T01:57:48;1.60;;;1.20;;
58992;SDS011;44782;0.000;0.000;2023-11-19T02:00:06;1.40;;;1.30;;
58992;SDS011;44782;0.000;0.000;2023-11-19T02:02:26;1.00;;;1.00;;
58992;SDS011;44782;0.000;0.000;2023-11-19T02:04:42;1.10;;;1.00;;
58992;SDS011;44782;0.000;0.000;2023-11-19T02:06:58;1.23;;;1.13;;
58992;SDS011;44782;0.000;0.000;2023-11-19T02:09:13;1.13;;;1.00;;
58992;SDS011;44782;0.000;0.000;2023-11-19T02:11:29;1.40;;;1.30;;
58992;SDS011;44782;0.000;0.000;2023-11-19T02:13:45;1.23;;;1.13;;
58992;SDS011;44782;0.000;0.000;2023-11-19T02:16:00;1.50;;;1.40;;
58992;SDS011;44782;0.000;0.000;2023-11-19T02:18:24;1.30;;;1.20;;
58992;SDS011;44782;0.000;0.000;2023-11-19T02:20:43;1.00;;;1.00;;
58992;SDS011;44782;0.000;0.000;2023-11-19T02:22:58;1.77;;;1.30;;
58992;SDS011;44782;0.000;0.000;2023-11-19T02:25:25;0.97;;;0.97;;
58992;SDS011;44782;0.000;0.000;2023-11-19T02:27:55;1.20;;;1.10;;
58992;SDS011;44782;0.000;0.000;2023-11-19T02:30:13;1.20;;;1.10;;
58992;SDS011;44782;0.000;0.000;2023-11-19T02:32:29;1.27;;;1.03;;
58992;SDS011;44782;0.000;0.000;2023-11-19T02:34:45;1.10;;;1.00;;
58992;SDS011;44782;0.000;0.000;2023-11-19T02:37:01;1.30;;;1.00;;
58992;SDS011;44782;0.000;0.000;2023-11-19T02:39:17;1.10;;;1.00;;
58992;SDS011;44782;0.000;0.000;2023-11-19T02:41:36;1.20;;;1.10;;
58992;SDS011;44782;0.000;0.000;2023-11-19T02:43:54;1.00;;;1.00;;
58992;SDS011;44782;0.000;0.000;2023-11-19T02:46:10;1.20;;;1.10;;
58992;SDS011;44782;0.000;0.000;2023-11-19T02:48:25;1.10;;;1.00;;
58992;SDS011;44782;0.000;0.000;2023-11-19T02:50:42;1.30;;;1.20;;
58992;SDS011;44782;0.000;0.000;2023-11-19T02:52:57;1.10;;;1.00;;
58992;SDS011;44782;0.000;0.000;2023-11-19T02:55:13;1.10;;;1.00;;
58992;SDS011;44782;0.000;0.000;2023-11-19T02:57:32;1.30;;;1.20;;
58992;SDS011;44782;0.000;0.000;2023-11-19T02:59:48;1.10;;;1.00;;
58992;SDS011;44782;0.000;0.000;2023-11-19T03:02:05;1.00;;;1.00;;
58992;SDS011;44782;0.000;0.000;2023-11-19T03:04:21;1.50;;;1.40;;
58992;SDS011;44782;0.000;0.000;2023-11-19T03:06:38;1.30;;;1.20;;
58992;SDS011;44782;0.000;0.000;2023-11-19T03:08:54;1.20;;;1.10;;
58992;SDS011;44782;0.000;0.000;2023-11-19T03:11:10;1.37;;;1.23;;
58992;SDS011;44782;0.000;0.000;2023-11-19T03:13:26;1.10;;;1.00;;
58992;SDS011;44782;0.000;0.000;2023-11-19T03:15:42;0.90;;;0.90;;
58992;SDS011;44782;0.000;0.000;2023-11-19T03:17:58;1.57;;;1.13;;
58992;SDS011;44782;0.000;0.000;2023-11-19T03:20:14;0.90;;;0.90;;
58992;SDS011;44782;0.000;0.000;2023-11-19T03:22:32;1.30;;;1.20;;
58992;SDS011;44782;0.000;0.000;2023-11-19T03:24:51;1.40;;;1.30;;
58992;SDS011;44782;0.000;0.000;2023-11-19T03:27:07;1.00;;;1.00;;
58992;SDS011;44782;0.000;0.000;2023-11-19T03:29:23;1.00;;;1.00;;
58992;SDS011;44782;0.000;0.000;2023-11-19T03:31:41;1.23;;;0.97;;
58992;SDS011;44782;0.000;0.000;2023-11-19T03:33:58;1.20;;;1.10;;
58992;SDS011;44782;0.000;0.000;2023-11-19T03:36:14;0.90;;;0.90;;
58992;SDS011;44782;0.000;0.000;2023-11-19T03:38:29;1.20;;;1.10;;
58992;SDS011;44782;0.000;0.000;2023-11-19T03:40:45;1.17;;;1.10;;
58992;SDS011;44782;0.000;0.000;2023-11-19T03:43:00;0.90;;;0.90;;
58992;SDS011;44782;0.000;0.000;2023-11-19T03:45:16;1.23;;;1.10;;
58992;SDS011;44782;0.000;0.000;2023-11-19T03:47:32;1.53;;;1.17;;
58992;SDS011;44782;0.000;0.000;2023-11-19T03:49:48;1.20;;;1.00;;
58992;SDS011;44782;0.000;0.000;2023-11-19T03:52:04;1.20;;;1.10;;
58992;SDS011;44782;0.000;0.000;2023-11-19T03:54:20;1.00;;;1.00;;
58992;SDS011;44782;0.000;0.000;2023-11-19T03:56:38;1.30;;;1.20;;
58992;SDS011;44782;0.000;0.000;2023-11-19T03:58:54;1.40;;;1.13;;
58992;SDS011;44782;0.000;0.000;2023-11-19T04:01:12;1.07;;;1.07;;
58992;SDS011;44782;0.000;0.000;2023-11-19T04:03:30;1.07;;;0.87;;
58992;SDS011;44782;0.000;0.000;2023-11-19T04:05:46;1.13;;;1.00;;
58992;SDS011;44782;0.000;0.000;2023-11-19T04:08:02;1.17;;;1.07;;
58992;SDS011;44782;0.000;0.000;2023-11-19T04:10:17;1.10;;;1.00;;
58992;SDS011;44782;0.000;0.000;2023-11-19T04:12:33;1.30;;;1.20;;
58992;SDS011;44782;0.000;0.000;2023-11-19T04:14:50;1.30;;;1.20;;
58992;SDS011;44782;0.000;0.000;2023-11-19T04:17:05;1.30;;;1.10;;
58992;SDS011;44782;0.000;0.000;2023-11-19T04:19:21;0.80;;;0.80;;
58992;SDS011;44782;0.000;0.000;2023-11-19T04:21:37;1.17;;;1.13;;
58992;SDS011;44782;0.000;0.000;2023-11-19T04:23:56;2.10;;;1.10;;
58992;SDS011;44782;0.000;0.000;2023-11-19T04:26:11;1.20;;;1.10;;
58992;SDS011;44782;0.000;0.000;2023-11-19T04:28:27;1.30;;;1.20;;
58992;SDS011;44782;0.000;0.000;2023-11-19T04:30:42;1.20;;;0.90;;
58992;SDS011;44782;0.000;0.000;2023-11-19T04:32:59;1.27;;;1.10;;
58992;SDS011;44782;0.000;0.000;2023-11-19T04:35:14;0.90;;;0.90;;
58992;SDS011;44782;0.000;0.000;2023-11-19T04:37:30;1.07;;;0.97;;
58992;SDS011;44782;0.000;0.000;2023-11-19T04:39:46;0.90;;;0.90;;
58992;SDS011;44782;0.000;0.000;2023-11-19T04:42:01;1.07;;;0.97;;
58992;SDS011;44782;0.000;0.000;2023-11-19T04:44:17;1.10;;;1.00;;
58992;SDS011;44782;0.000;0.000;2023-11-19T04:46:33;1.27;;;1.17;;
58992;SDS011;44782;0.000;0.000;2023-11-19T04:48:49;1.33;;;1.00;;
58992;SDS011;44782;0.000;0.000;2023-11-19T04:51:05;1.20;;;1.07;;
58992;SDS011;44782;0.000;0.000;2023-11-19T04:53:21;1.40;;;1.03;;
58992;SDS011;44782;0.000;0.000;2023-11-19T04:55:37;1.20;;;0.90;;
58992;SDS011;44782;0.000;0.000;2023-11-19T04:57:53;1.00;;;0.93;;
58992;SDS011;44782;0.000;0.000;2023-11-19T05:00:09;1.20;;;1.10;;
58992;SDS011;44782;0.000;0.000;2023-11-19T05:02:26;1.10;;;1.00;;
58992;SDS011;44782;0.000;0.000;2023-11-19T05:04:44;1.10;;;1.00;;
58992;SDS011;44782;0.000;0.000;2023-11-19T05:07:01;1.20;;;1.10;;
58992;SDS011;44782;0.000;0.000;2023-11-19T05:09:17;1.10;;;1.00;;
58992;SDS011;44782;0.000;0.000;2023-11-19T05:11:33;0.80;;;0.80;;
58992;SDS011;44782;0.000;0.000;2023-11-19T05:13:49;0.93;;;0.90;;
58992;SDS011;44782;0.000;0.000;2023-11-19T05:16:05;0.90;;;0.90;;
58992;SDS011;44782;0.000;0.000;2023-11-19T05:18:21;1.10;;;1.00;;
58992;SDS011;44782;0.000;0.000;2023-11-19T05:20:37;1.00;;;0.90;;
58992;SDS011;44782;0.000;0.000;2023-11-19T05:22:52;1.10;;;1.00;;
58992;SDS011;44782;0.000;0.000;2023-11-19T05:25:08;1.57;;;1.10;;
58992;SDS011;44782;0.000;0.000;2023-11-19T05:27:25;1.20;;;1.10;;
58992;SDS011;44782;0.000;0.000;2023-11-19T05:29:42;1.17;;;1.03;;
58992;SDS011;44782;0.000;0.000;2023-11-19T05:31:58;1.10;;;1.00;;
58992;SDS011;44782;0.000;0.000;2023-11-19T05:34:14;1.17;;;1.07;;
58992;SDS011;44782;0.000;0.000;2023-11-19T05:36:30;1.37;;;1.20;;
58992;SDS011;44782;0.000;0.000;2023-11-19T05:38:45;1.00;;;1.00;;
58992;SDS011;44782;0.000;0.000;2023-11-19T05:41:01;1.10;;;1.00;;
58992;SDS011;44782;0.000;0.000;2023-11-19T05:43:16;1.13;;;1.03;;
58992;SDS011;44782;0.000;0.000;2023-11-19T05:45:32;1.07;;;0.90;;
58992;SDS011;44782;0.000;0.000;2023-11-19T05:47:48;1.00;;;1.00;;
58992;SDS011;44782;0.000;0.000;2023-11-19T05:50:04;0.90;;;0.90;;
58992;SDS011;44782;0.000;0.000;2023-11-19T05:52:21;1.10;;;1.00;;
58992;SDS011;44782;0.000;0.000;2023-11-19T05:54:38;0.83;;;0.83;;
58992;SDS011;44782;0.000;0.000;2023-11-19T05:56:53;0.80;;;0.80;;
58992;SDS011;44782;0.000;0.000;2023-11-19T05:59:09;1.10;;;1.00;;
58992;SDS011;44782;0.000;0.000;2023-11-19T06:01:30;1.00;;;1.00;;
58992;SDS011;44782;0.000;0.000;2023-11-19T06:03:46;1.17;;;1.03;;
58992;SDS011;44782;0.000;0.000;2023-11-19T06:06:05;0.80;;;0.80;;
58992;SDS011;44782;0.000;0.000;2023-11-19T06:08:21;1.30;;;1.00;;
58992;SDS011;44782;0.000;0.000;2023-11-19T06:10:38;1.00;;;0.90;;
58992;SDS011;44782;0.000;0.000;2023-11-19T06:12:54;1.17;;;1.07;;
58992;SDS011;44782;0.000;0.000;2023-11-19T06:15:12;1.10;;;1.00;;
58992;SDS011;44782;0.000;0.000;2023-11-19T06:17:28;1.13;;;1.03;;
58992;SDS011;44782;0.000;0.000;2023-11-19T06:19:44;1.43;;;1.10;;
58992;SDS011;44782;0.000;0.000;2023-11-19T06:22:00;1.30;;;1.20;;
58992;SDS011;44782;0.000;0.000;2023-11-19T06:24:15;1.10;;;1.00;;
58992;SDS011;44782;0.000;0.000;2023-11-19T06:26:31;1.23;;;1.00;;
58992;SDS011;44782;0.000;0.000;2023-11-19T06:28:46;1.17;;;1.07;;
58992;SDS011;44782;0.000;0.000;2023-11-19T06:31:03;1.10;;;1.00;;
58992;SDS011;44782;0.000;0.000;2023-11-19T06:33:18;1.03;;;1.00;;
58992;SDS011;44782;0.000;0.000;2023-11-19T06:35:34;0.90;;;0.90;;
58992;SDS011;44782;0.000;0.000;2023-11-19T06:37:52;1.20;;;1.10;;
58992;SDS011;44782;0.000;0.000;2023-11-19T06:40:08;1.33;;;1.10;;
58992;SDS011;44782;0.000;0.000;2023-11-19T06:42:24;0.90;;;0.90;;
58992;SDS011;44782;0.000;0.000;2023-11-19T06:44:40;1.30;;;1.00;;
58992;SDS011;44782;0.000;0.000;2023-11-19T06:46:55;1.20;;;1.00;;
58992;SDS011;44782;0.000;0.000;2023-11-19T06:49:11;1.10;;;0.97;;
58992;SDS011;44782;0.000;0.000;2023-11-19T06:51:27;1.00;;;1.00;;
58992;SDS011;44782;0.000;0.000;2023-11-19T06:53:42;1.10;;;1.07;;
58992;SDS011;44782;0.000;0.000;2023-11-19T06:55:59;1.07;;;1.00;;
58992;SDS011;44782;0.000;0.000;2023-11-19T06:58:15;1.40;;;1.30;;
58992;SDS011;44782;0.000;0.000;2023-11-19T07:00:33;1.37;;;1.10;;
58992;SDS011;44782;0.000;0.000;2023-11-19T07:02:50;1.20;;;1.10;;
58992;SDS011;44782;0.000;0.000;2023-11-19T07:05:06;1.10;;;1.00;;
58992;SDS011;44782;0.000;0.000;2023-11-19T07:07:23;1.10;;;1.00;;
58992;SDS011;44782;0.000;0.000;2023-11-19T07:09:38;1.07;;;1.00;;
58992;SDS011;44782;0.000;0.000;2023-11-19T07:11:54;1.50;;;1.20;;
58992;SDS011;44782;0.000;0.000;2023-11-19T07:14:11;1.30;;;1.10;;
58992;SDS011;44782;0.000;0.000;2023-11-19T07:16:26;2.03;;;1.20;;
58992;SDS011;44782;0.000;0.000;2023-11-19T07:18:42;1.23;;;1.10;;
58992;SDS011;44782;0.000;0.000;2023-11-19T07:20:58;1.00;;;1.00;;
58992;SDS011;44782;0.000;0.000;2023-11-19T07:23:14;1.57;;;1.30;;
58992;SDS011;44782;0.000;0.000;2023-11-19T07:25:31;1.27;;;1.00;;
58992;SDS011;44782;0.000;0.000;2023-11-19T07:27:47;1.20;;;1.10;;
58992;SDS011;44782;0.000;0.000;2023-11-19T07:30:03;1.63;;;1.30;;
58992;SDS011;44782;0.000;0.000;2023-11-19T07:32:19;1.50;;;1.20;;
58992;SDS011;44782;0.000;0.000;2023-11-19T07:34:35;1.40;;;1.20;;
58992;SDS011;44782;0.000;0.000;2023-11-19T07:36:50;1.50;;;1.10;;
58992;SDS011;44782;0.000;0.000;2023-11-19T07:39:07;1.20;;;1.10;;
58992;SDS011;44782;0.000;0.000;2023-11-19T07:41:23;1.30;;;1.17;;
58992;SDS011;44782;0.000;0.000;2023-11-19T07:43:41;1.60;;;1.27;;
58992;SDS011;44782;0.000;0.000;2023-11-19T07:45:59;1.10;;;1.00;;
58992;SDS011;44782;0.000;0.000;2023-11-19T07:48:15;1.20;;;1.10;;
58992;SDS011;44782;0.000;0.000;2023-11-19T07:50:33;2.20;;;1.40;;
58992;SDS011;44782;0.000;0.000;2023-11-19T07:52:48;1.33;;;1.23;;
58992;SDS011;44782;0.000;0.000;2023-11-19T07:55:04;1.40;;;1.30;;
58992;SDS011;44782;0.000;0.000;2023-11-19T07:57:20;2.40;;;1.60;;
58992;SDS011;44782;0.000;0.000;2023-11-19T07:59:36;2.13;;;1.27;;
58992;SDS011;44782;0.000;0.000;2023-11-19T08:01:51;3.17;;;1.73;;
58992;SDS011;44782;0.000;0.000;2023-11-19T08:04:07;3.23;;;1.70;;
58992;SDS011;44782;0.000;0.000;2023-11-19T08:06:23;3.07;;;2.00;;
58992;SDS011;44782;0.000;0.000;2023-11-19T08:08:38;4.97;;;1.90;;
58992;SDS011;44782;0.000;0.000;2023-11-19T08:10:54;2.73;;;1.63;;
58992;SDS011;44782;0.000;0.000;2023-11-19T08:13:11;3.40;;;1.80;;
58992;SDS011;44782;0.000;0.000;2023-11-19T08:15:27;3.27;;;1.80;;
58992;SDS011;44782;0.000;0.000;2023-11-19T08:17:43;3.00;;;1.67;;
58992;SDS011;44782;0.000;0.000;2023-11-19T08:19:58;2.50;;;1.70;;
58992;SDS011;44782;0.000;0.000;2023-11-19T08:22:15;3.53;;;1.90;;
58992;SDS011;44782;0.000;0.000;2023-11-19T08:24:31;3.03;;;2.03;;
58992;SDS011;44782;0.000;0.000;2023-11-19T08:26:47;4.07;;;2.00;;
58992;SDS011;44782;0.000;0.000;2023-11-19T08:29:03;2.83;;;1.80;;
58992;SDS011;44782;0.000;0.000;2023-11-19T08:31:18;2.80;;;1.77;;
58992;SDS011;44782;0.000;0.000;2023-11-19T08:33:34;3.23;;;2.17;;
58992;SDS011;44782;0.000;0.000;2023-11-19T08:35:50;2.00;;;1.60;;
58992;SDS011;44782;0.000;0.000;2023-11-19T08:38:06;3.23;;;1.73;;
58992;SDS011;44782;0.000;0.000;2023-11-19T08:40:21;2.97;;;1.70;;
58992;SDS011;44782;0.000;0.000;2023-11-19T08:42:37;2.33;;;1.70;;
58992;SDS011;44782;0.000;0.000;2023-11-19T08:44:54;2.43;;;1.90;;
58992;SDS011;44782;0.000;0.000;2023-11-19T08:47:11;3.20;;;1.90;;
58992;SDS011;44782;0.000;0.000;2023-11-19T08:49:27;3.07;;;1.90;;
58992;SDS011;44782;0.000;0.000;2023-11-19T08:51:43;3.73;;;1.97;;
58992;SDS011;44782;0.000;0.000;2023-11-19T08:53:59;2.90;;;1.77;;
58992;SDS011;44782;0.000;0.000;2023-11-19T08:56:15;3.00;;;1.87;;
58992;SDS011;44782;0.000;0.000;2023-11-19T08:58:30;2.30;;;1.63;;
58992;SDS011;44782;0.000;0.000;2023-11-19T09:00:46;4.37;;;2.20;;
58992;SDS011;44782;0.000;0.000;2023-11-19T09:03:02;3.07;;;2.00;;
58992;SDS011;44782;0.000;0.000;2023-11-19T09:05:18;3.13;;;2.00;;
58992;SDS011;44782;0.000;0.000;2023-11-19T09:07:33;4.50;;;2.13;;
58992;SDS011;44782;0.000;0.000;2023-11-19T09:09:49;2.50;;;1.87;;
58992;SDS011;44782;0.000;0.000;2023-11-19T09:12:04;2.70;;;2.00;;
58992;SDS011;44782;0.000;0.000;2023-11-19T09:14:20;3.80;;;2.20;;
58992;SDS011;44782;0.000;0.000;2023-11-19T09:16:40;4.17;;;1.97;;
58992;SDS011;44782;0.000;0.000;2023-11-19T09:18:56;2.50;;;2.00;;
58992;SDS011;44782;0.000;0.000;2023-11-19T09:21:13;3.73;;;2.20;;
58992;SDS011;44782;0.000;0.000;2023-11-19T09:23:28;4.30;;;2.50;;
58992;SDS011;44782;0.000;0.000;2023-11-19T09:25:47;2.83;;;2.30;;
58992;SDS011;44782;0.000;0.000;2023-11-19T09:28:03;3.77;;;2.47;;
58992;SDS011;44782;0.000;0.000;2023-11-19T09:30:18;3.70;;;2.10;;
58992;SDS011;44782;0.000;0.000;2023-11-19T09:32:35;2.90;;;2.10;;
58992;SDS011;44782;0.000;0.000;2023-11-19T09:34:52;4.03;;;2.40;;
58992;SDS011;44782;0.000;0.000;2023-11-19T09:37:08;4.17;;;2.30;;
58992;SDS011;44782;0.000;0.000;2023-11-19T09:39:23;4.27;;;2.10;;
58992;SDS011;44782;0.000;0.000;2023-11-19T09:41:40;4.17;;;2.20;;
58992;SDS011;44782;0.000;0.000;2023-11-19T09:43:57;3.57;;;2.27;;
58992;SDS011;44782;0.000;0.000;2023-11-19T09:46:13;4.00;;;2.53;;
58992;SDS011;44782;0.000;0.000;2023-11-19T09:48:30;4.30;;;2.60;;
58992;SDS011;44782;0.000;0.000;2023-11-19T09:50:47;4.43;;;2.30;;
58992;SDS011;44782;0.000;0.000;2023-11-19T09:53:03;3.93;;;2.27;;
58992;SDS011;44782;0.000;0.000;2023-11-19T09:55:19;4.43;;;2.70;;
58992;SDS011;44782;0.000;0.000;2023-11-19T09:57:35;5.30;;;2.70;;
58992;SDS011;44782;0.000;0.000;2023-11-19T09:59:54;3.93;;;2.43;;
58992;SDS011;44782;0.000;0.000;2023-11-19T10:02:10;4.03;;;2.37;;
58992;SDS011;44782;0.000;0.000;2023-11-19T10:04:26;4.90;;;2.70;;
58992;SDS011;44782;0.000;0.000;2023-11-19T10:06:45;4.73;;;2.67;;
58992;SDS011;44782;0.000;0.000;2023-11-19T10:09:01;4.17;;;2.57;;
58992;SDS011;44782;0.000;0.000;2023-11-19T10:11:19;5.20;;;2.70;;
58992;SDS011;44782;0.000;0.000;2023-11-19T10:13:35;4.53;;;2.77;;
58992;SDS011;44782;0.000;0.000;2023-11-19T10:15:55;2.90;;;2.03;;
58992;SDS011;44782;0.000;0.000;2023-11-19T10:18:13;3.37;;;2.60;;
58992;SDS011;44782;0.000;0.000;2023-11-19T10:20:29;3.77;;;2.57;;
58992;SDS011;44782;0.000;0.000;2023-11-19T10:22:54;5.43;;;2.50;;
58992;SDS011;44782;0.000;0.000;2023-11-19T10:25:26;3.40;;;2.50;;
58992;SDS011;44782;0.000;0.000;2023-11-19T10:27:42;4.50;;;2.43;;
58992;SDS011;44782;0.000;0.000;2023-11-19T10:29:59;5.40;;;3.40;;
58992;SDS011;44782;0.000;0.000;2023-11-19T10:32:15;4.73;;;2.83;;
58992;SDS011;44782;0.000;0.000;2023-11-19T10:34:31;5.17;;;4.00;;
58992;SDS011;44782;0.000;0.000;2023-11-19T10:36:47;9.27;;;6.80;;
58992;SDS011;44782;0.000;0.000;2023-11-19T10:39:02;12.23;;;10.83;;
58992;SDS011;44782;0.000;0.000;2023-11-19T10:41:28;13.63;;;11.30;;
58992;SDS011;44782;0.000;0.000;2023-11-19T10:43:45;16.83;;;12.10;;
58992;SDS011;44782;0.000;0.000;2023-11-19T10:46:10;18.70;;;15.13;;
58992;SDS011;44782;0.000;0.000;2023-11-19T10:48:27;16.07;;;12.03;;
58992;SDS011;44782;0.000;0.000;2023-11-19T10:50:43;16.50;;;13.03;;
58992;SDS011;44782;0.000;0.000;2023-11-19T10:53:00;15.50;;;12.40;;
58992;SDS011;44782;0.000;0.000;2023-11-19T10:55:15;21.40;;;15.97;;
58992;SDS011;44782;0.000;0.000;2023-11-19T10:57:40;31.47;;;23.83;;
58992;SDS011;44782;0.000;0.000;2023-11-19T11:00:02;40.90;;;28.80;;
58992;SDS011;44782;0.000;0.000;2023-11-19T11:02:25;37.07;;;26.77;;
58992;SDS011;44782;0.000;0.000;2023-11-19T11:04:43;34.77;;;24.63;;
58992;SDS011;44782;0.000;0.000;2023-11-19T11:07:02;36.90;;;27.20;;
58992;SDS011;44782;0.000;0.000;2023-11-19T11:09:19;37.27;;;27.30;;
58992;SDS011;44782;0.000;0.000;2023-11-19T11:11:35;35.90;;;25.77;;
58992;SDS011;44782;0.000;0.000;2023-11-19T11:13:53;33.83;;;25.30;;
58992;SDS011;44782;0.000;0.000;2023-11-19T11:16:11;32.53;;;23.87;;
58992;SDS011;44782;0.000;0.000;2023-11-19T11:18:28;34.53;;;24.37;;
58992;SDS011;44782;0.000;0.000;2023-11-19T11:20:44;37.60;;;27.30;;
58992;SDS011;44782;0.000;0.000;2023-11-19T11:23:06;39.47;;;29.40;;
58992;SDS011;44782;0.000;0.000;2023-11-19T11:28:16;30.13;;;22.30;;
58992;SDS011;44782;0.000;0.000;2023-11-19T11:31:19;29.63;;;22.30;;
58992;SDS011;44782;0.000;0.000;2023-11-19T11:33:48;29.43;;;20.90;;
58992;SDS011;44782;0.000;0.000;2023-11-19T11:36:31;27.20;;;21.13;;
58992;SDS011;44782;0.000;0.000;2023-11-19T11:38:50;23.87;;;18.10;;
58992;SDS011;44782;0.000;0.000;2023-11-19T11:43:49;24.80;;;18.53;;
58992;SDS011;44782;0.000;0.000;2023-11-19T11:46:05;24.77;;;18.00;;
58992;SDS011;44782;0.000;0.000;2023-11-19T11:48:23;24.20;;;18.57;;
58992;SDS011;44782;0.000;0.000;2023-11-19T11:50:47;21.60;;;16.57;;
58992;SDS011;44782;0.000;0.000;2023-11-19T11:53:13;22.80;;;16.30;;
58992;SDS011;44782;0.000;0.000;2023-11-19T11:55:36;21.97;;;15.70;;
58992;SDS011;44782;0.000;0.000;2023-11-19T11:58:06;22.77;;;15.50;;
58992;SDS011;44782;0.000;0.000;2023-11-19T12:00:37;20.97;;;13.83;;
58992;SDS011;44782;0.000;0.000;2023-11-19T12:03:04;19.50;;;13.83;;
58992;SDS011;44782;0.000;0.000;2023-11-19T12:05:24;20.23;;;13.53;;
58992;SDS011;44782;0.000;0.000;2023-11-19T12:07:39;16.50;;;12.77;;
58992;SDS011;44782;0.000;0.000;2023-11-19T12:10:05;22.30;;;13.57;;
58992;SDS011;44782;0.000;0.000;2023-11-19T12:12:23;17.83;;;11.93;;
58992;SDS011;44782;0.000;0.000;2023-11-19T12:17:43;14.20;;;10.17;;
58992;SDS011;44782;0.000;0.000;2023-11-19T12:20:05;16.30;;;9.97;;
58992;SDS011;44782;0.000;0.000;2023-11-19T12:22:26;15.17;;;10.03;;
58992;SDS011;44782;0.000;0.000;2023-11-19T12:24:41;13.57;;;8.90;;
58992;SDS011;44782;0.000;0.000;2023-11-19T12:26:57;14.47;;;7.43;;
58992;SDS011;44782;0.000;0.000;2023-11-19T12:29:13;12.03;;;8.67;;
58992;SDS011;44782;0.000;0.000;2023-11-19T12:31:29;12.27;;;8.80;;
58992;SDS011;44782;0.000;0.000;2023-11-19T12:33:45;13.10;;;8.37;;
58992;SDS011;44782;0.000;0.000;2023-11-19T12:36:03;13.57;;;8.63;;
58992;SDS011;44782;0.000;0.000;2023-11-19T12:38:24;12.53;;;7.63;;
58992;SDS011;44782;0.000;0.000;2023-11-19T12:40:40;11.07;;;6.93;;
58992;SDS011;44782;0.000;0.000;2023-11-19T12:42:56;10.23;;;6.70;;
58992;SDS011;44782;0.000;0.000;2023-11-19T12:45:12;12.50;;;6.77;;
58992;SDS011;44782;0.000;0.000;2023-11-19T12:47:28;10.50;;;6.63;;
58992;SDS011;44782;0.000;0.000;2023-11-19T12:49:54;7.97;;;5.60;;
58992;SDS011;44782;0.000;0.000;2023-11-19T12:52:13;8.40;;;5.20;;
58992;SDS011;44782;0.000;0.000;2023-11-19T12:54:32;8.97;;;5.77;;
58992;SDS011;44782;0.000;0.000;2023-11-19T12:56:52;7.63;;;5.83;;
58992;SDS011;44782;0.000;0.000;2023-11-19T12:59:11;8.73;;;5.83;;
58992;SDS011;44782;0.000;0.000;2023-11-19T13:01:27;9.27;;;5.40;;
58992;SDS011;44782;0.000;0.000;2023-11-19T13:03:43;9.17;;;5.10;;
58992;SDS011;44782;0.000;0.000;2023-11-19T13:06:06;8.53;;;5.53;;
58992;SDS011;44782;0.000;0.000;2023-11-19T13:08:26;8.40;;;5.70;;
58992;SDS011;44782;0.000;0.000;2023-11-19T13:10:51;9.00;;;5.07;;
58992;SDS011;44782;0.000;0.000;2023-11-19T13:13:08;7.17;;;5.07;;
58992;SDS011;44782;0.000;0.000;2023-11-19T13:15:24;9.90;;;4.90;;
58992;SDS011;44782;0.000;0.000;2023-11-19T13:17:41;9.03;;;5.17;;
58992;SDS011;44782;0.000;0.000;2023-11-19T13:19:56;7.83;;;4.17;;
58992;SDS011;44782;0.000;0.000;2023-11-19T13:22:12;8.83;;;4.20;;
58992;SDS011;44782;0.000;0.000;2023-11-19T13:24:27;7.47;;;4.30;;
58992;SDS011;44782;0.000;0.000;2023-11-19T13:26:43;6.30;;;3.77;;
58992;SDS011;44782;0.000;0.000;2023-11-19T13:28:59;10.33;;;4.20;;
58992;SDS011;44782;0.000;0.000;2023-11-19T13:31:14;7.40;;;4.00;;
58992;SDS011;44782;0.000;0.000;2023-11-19T13:33:30;5.23;;;3.50;;
58992;SDS011;44782;0.000;0.000;2023-11-19T13:35:46;6.90;;;3.70;;
58992;SDS011;44782;0.000;0.000;2023-11-19T13:38:01;6.57;;;3.40;;
58992;SDS011;44782;0.000;0.000;2023-11-19T13:40:17;6.47;;;3.33;;
58992;SDS011;44782;0.000;0.000;2023-11-19T13:42:34;6.13;;;3.40;;
58992;SDS011;44782;0.000;0.000;2023-11-19T13:44:49;6.77;;;3.57;;
58992;SDS011;44782;0.000;0.000;2023-11-19T13:47:05;7.80;;;3.87;;
58992;SDS011;44782;0.000;0.000;2023-11-19T13:49:21;5.13;;;2.77;;
58992;SDS011;44782;0.000;0.000;2023-11-19T13:51:36;5.53;;;3.00;;
58992;SDS011;44782;0.000;0.000;2023-11-19T13:53:52;6.00;;;3.10;;
58992;SDS011;44782;0.000;0.000;2023-11-19T13:56:09;6.07;;;3.20;;
58992;SDS011;44782;0.000;0.000;2023-11-19T13:58:24;5.83;;;3.53;;
58992;SDS011;44782;0.000;0.000;2023-11-19T14:00:40;4.47;;;2.83;;
58992;SDS011;44782;0.000;0.000;2023-11-19T14:02:57;6.57;;;3.10;;
58992;SDS011;44782;0.000;0.000;2023-11-19T14:05:13;4.60;;;2.83;;